Time;durP1;ratioP1;P1;durP2;ratioP2;P2;SDS_P1;SDS_P2;PMS_P1;PMS_P2;Temp;Humidity;BMP_temperature;BMP_pressure;BME280_temperature;BME280_humidity;BME280_pressure;Samples;Min_cycle;Max_cycle;Signal;HPM_P1;HPM_P2
2022/04/25 00:00:44;;;;;;;5.13;4.73;;;21.90;47.80;;;;;;4852909;29;20580;-64
2022/04/25 00:03:14;;;;;;;2.30;2.10;;;21.90;49.50;;;;;;4841629;29;20463;-66
2022/04/25 00:05:47;;;;;;;2.77;2.57;;;22.00;48.30;;;;;;4835995;29;20498;-65
2022/04/25 00:08:18;;;;;;;99.47;88.90;;;22.10;50.00;;;;;;4838006;29;20486;-66
2022/04/25 00:10:49;;;;;;;4.83;4.43;;;22.20;51.20;;;;;;4852554;29;20482;-66
2022/04/25 00:13:19;;;;;;;3.00;2.20;;;22.10;49.20;;;;;;4839267;29;20466;-65
2022/04/25 00:15:52;;;;;;;3.33;2.60;;;22.10;48.70;;;;;;4835672;29;20826;-65
2022/04/25 00:18:23;;;;;;;2.30;2.20;;;22.20;50.60;;;;;;4848544;29;20859;-66
2022/04/25 00:20:56;;;;;;;2.70;2.50;;;22.10;49.40;;;;;;4843279;29;20460;-66
2022/04/25 00:23:27;;;;;;;4.10;3.67;;;22.00;49.10;;;;;;4847506;29;20557;-66
2022/04/25 00:25:58;;;;;;;4.30;3.90;;;22.00;50.00;;;;;;4848040;29;20876;-66
2022/04/25 00:28:29;;;;;;;2.60;2.30;;;22.10;50.60;;;;;;4848890;29;20474;-66
2022/04/25 00:31:00;;;;;;;7.40;6.80;;;22.00;51.40;;;;;;4842406;29;20834;-66
2022/04/25 00:33:31;;;;;;;4.47;4.07;;;21.90;51.90;;;;;;4848126;29;20542;-64
2022/04/25 00:36:04;;;;;;;2.13;1.93;;;21.90;52.90;;;;;;4836007;29;20466;-64
2022/04/25 00:38:35;;;;;;;3.63;1.87;;;21.90;53.50;;;;;;4848899;29;20441;-65
2022/04/25 00:41:08;;;;;;;2.23;2.10;;;21.80;53.20;;;;;;4842545;29;21004;-65
2022/04/25 00:43:39;;;;;;;2.60;2.40;;;21.90;51.70;;;;;;4834237;29;20491;-64
2022/04/25 00:46:21;;;;;;;2.70;2.17;;;22.00;54.30;;;;;;4851425;29;20458;-64
2022/04/25 00:48:53;;;;;;;1.93;1.80;;;22.00;53.20;;;;;;4834618;29;20542;-65
2022/04/25 00:51:26;;;;;;;3.70;1.70;;;21.80;53.70;;;;;;4834509;29;20434;-65
2022/04/25 00:53:57;;;;;;;2.70;2.10;;;21.70;53.20;;;;;;4833094;29;20983;-65
2022/04/25 00:56:28;;;;;;;1.50;1.40;;;21.70;53.90;;;;;;4840509;29;20463;-65
2022/04/25 00:58:59;;;;;;;1.60;1.50;;;21.70;53.10;;;;;;4844683;29;20472;-65
2022/04/25 01:01:31;;;;;;;2.63;2.00;;;21.70;51.40;;;;;;4850556;29;20485;-65
2022/04/25 01:04:02;;;;;;;2.83;2.63;;;21.60;52.80;;;;;;4833910;29;20498;-66
2022/04/25 01:06:35;;;;;;;2.90;1.87;;;21.70;52.70;;;;;;4834350;29;20462;-65
2022/04/25 01:09:06;;;;;;;3.97;3.67;;;21.70;53.10;;;;;;4845895;29;20462;-66
2022/04/25 01:11:36;;;;;;;1.50;1.40;;;21.60;52.50;;;;;;4851436;29;20590;-66
2022/04/25 01:14:18;;;;;;;2.13;2.03;;;21.50;54.10;;;;;;4851777;29;20466;-65
2022/04/25 01:16:49;;;;;;;2.60;2.23;;;21.30;55.30;;;;;;4843206;29;20440;-65
2022/04/25 01:19:20;;;;;;;1.70;1.60;;;21.30;54.00;;;;;;4851438;29;20522;-66
2022/04/25 01:21:58;;;;;;;1.83;1.73;;;21.20;54.30;;;;;;4835231;29;20459;-65
2022/04/25 01:27:19;;;;;;;2.03;1.83;;;21.20;54.70;;;;;;4848517;29;20475;-65
2022/04/25 01:29:51;;;;;;;1.93;1.73;;;21.20;54.20;;;;;;4837368;29;20462;-65
2022/04/25 01:32:26;;;;;;;2.03;1.50;;;21.20;53.90;;;;;;4844013;29;20471;-65
2022/04/25 01:34:57;;;;;;;1.80;1.70;;;21.30;53.80;;;;;;4833505;29;20466;-65
2022/04/25 01:37:27;;;;;;;1.53;1.43;;;21.20;53.90;;;;;;4835684;29;20454;-65
2022/04/25 01:40:01;;;;;;;1.43;1.33;;;21.10;53.30;;;;;;4850627;29;20754;-65
2022/04/25 01:42:32;;;;;;;2.40;1.87;;;21.00;53.70;;;;;;4849963;29;20473;-64
2022/04/25 01:45:02;;;;;;;1.53;1.43;;;20.80;55.50;;;;;;4845611;29;20526;-65
2022/04/25 01:47:33;;;;;;;1.50;1.37;;;20.70;54.80;;;;;;4845156;29;20446;-64
2022/04/25 01:50:05;;;;;;;1.37;1.27;;;20.70;55.20;;;;;;4833905;29;20459;-65
2022/04/25 01:52:36;;;;;;;2.00;1.50;;;20.60;54.80;;;;;;4839153;29;21185;-65
2022/04/25 01:55:10;;;;;;;1.80;1.70;;;20.50;56.00;;;;;;4841270;29;20432;-65
2022/04/25 01:57:41;;;;;;;3.23;2.10;;;20.50;56.60;;;;;;4838434;29;20506;-64
2022/04/25 02:00:12;;;;;;;10.47;8.20;;;20.40;56.80;;;;;;4848070;29;20481;-65
2022/04/25 02:02:43;;;;;;;6.10;5.50;;;20.40;56.10;;;;;;4842620;29;20446;-64
2022/04/25 02:05:14;;;;;;;2.90;2.33;;;20.30;58.90;;;;;;4850809;29;20530;-64
2022/04/25 02:07:45;;;;;;;2.50;2.30;;;20.30;57.50;;;;;;4847795;29;20466;-63
2022/04/25 02:10:17;;;;;;;3.23;2.00;;;20.20;56.60;;;;;;4849454;29;20508;-65
2022/04/25 02:12:48;;;;;;;2.90;2.70;;;20.20;56.30;;;;;;4840036;29;21371;-65
2022/04/25 02:15:19;;;;;;;2.77;2.57;;;20.10;58.00;;;;;;4849548;29;20449;-65
2022/04/25 02:17:50;;;;;;;2.77;1.70;;;20.10;57.80;;;;;;4844786;29;20461;-65
2022/04/25 02:20:21;;;;;;;1.80;1.50;;;20.00;59.30;;;;;;4842946;29;20473;-65
2022/04/25 02:22:51;;;;;;;2.60;1.37;;;19.90;59.20;;;;;;4845975;29;20463;-66
2022/04/25 02:25:24;;;;;;;3.20;1.90;;;19.80;60.70;;;;;;4832359;29;20579;-64
2022/04/25 02:27:55;;;;;;;1.60;1.30;;;19.80;59.80;;;;;;4843025;29;20848;-66
2022/04/25 02:30:26;;;;;;;2.20;2.10;;;19.70;61.00;;;;;;4844243;29;20853;-68
2022/04/25 02:32:57;;;;;;;2.20;1.93;;;19.50;60.80;;;;;;4847412;29;20460;-65
2022/04/25 02:35:28;;;;;;;2.83;1.90;;;19.50;59.80;;;;;;4851875;29;20558;-66
2022/04/25 02:37:58;;;;;;;2.57;2.20;;;19.50;60.80;;;;;;4850584;29;20436;-65
2022/04/25 02:40:31;;;;;;;1.90;1.80;;;19.40;61.80;;;;;;4850137;29;20470;-65
2022/04/25 02:43:02;;;;;;;1.60;1.50;;;19.30;64.10;;;;;;4840928;29;20486;-66
2022/04/25 02:45:32;;;;;;;2.10;2.00;;;19.30;65.50;;;;;;4852183;29;20483;-66
2022/04/25 02:48:03;;;;;;;2.10;2.00;;;19.10;64.40;;;;;;4847885;29;20433;-66
2022/04/25 02:50:34;;;;;;;2.10;2.00;;;19.10;63.80;;;;;;4852664;29;20477;-66
2022/04/25 02:53:05;;;;;;;2.47;2.10;;;19.00;66.50;;;;;;4852735;29;20470;-66
2022/04/25 02:55:37;;;;;;;1.80;1.50;;;18.80;69.30;;;;;;4853704;29;20474;-65
2022/04/25 02:58:08;;;;;;;3.30;2.17;;;18.80;69.30;;;;;;4848022;29;20449;-66
2022/04/25 03:00:40;;;;;;;3.50;1.60;;;18.80;67.60;;;;;;4845421;29;20464;-65
2022/04/25 03:03:11;;;;;;;2.83;1.90;;;18.70;67.90;;;;;;4838949;29;20468;-65
2022/04/25 03:05:43;;;;;;;2.20;1.80;;;18.60;69.60;;;;;;4849403;29;20498;-66
2022/04/25 03:08:16;;;;;;;2.17;2.00;;;18.60;69.70;;;;;;4839108;29;20421;-65
2022/04/25 03:10:51;;;;;;;3.80;2.10;;;18.50;69.40;;;;;;4836329;29;20474;-66
2022/04/25 03:13:24;;;;;;;2.90;1.80;;;18.40;70.60;;;;;;4837768;29;20468;-65
2022/04/25 03:15:55;;;;;;;3.10;1.70;;;18.30;65.90;;;;;;4848894;29;20446;-66
2022/04/25 03:18:26;;;;;;;2.73;1.93;;;18.30;66.50;;;;;;4846387;29;21247;-66
2022/04/25 03:20:57;;;;;;;2.20;2.00;;;18.20;66.10;;;;;;4852440;29;20447;-66
2022/04/25 03:23:28;;;;;;;2.30;1.47;;;18.00;64.70;;;;;;4842143;29;20497;-67
2022/04/25 03:26:00;;;;;;;1.50;1.40;;;17.90;58.90;;;;;;4841699;29;20484;-66
2022/04/25 03:28:31;;;;;;;1.80;1.60;;;17.90;59.10;;;;;;4850688;29;20770;-66
2022/04/25 03:31:02;;;;;;;2.13;1.93;;;17.90;58.70;;;;;;4850148;29;20449;-66
2022/04/25 03:33:33;;;;;;;2.70;1.67;;;17.80;58.90;;;;;;4845073;29;20491;-66
2022/04/25 03:36:04;;;;;;;2.23;1.60;;;17.70;59.80;;;;;;4841660;29;20466;-67
2022/04/25 03:38:35;;;;;;;1.90;1.40;;;17.60;58.50;;;;;;4848974;29;20489;-66
2022/04/25 03:41:08;;;;;;;1.60;1.50;;;17.50;59.00;;;;;;4851368;29;20559;-66
2022/04/25 03:43:38;;;;;;;2.03;1.63;;;17.40;58.00;;;;;;4851810;29;20448;-66
2022/04/25 03:46:09;;;;;;;1.63;1.23;;;17.30;58.80;;;;;;4840395;29;20473;-66
2022/04/25 03:48:41;;;;;;;2.93;1.47;;;17.20;59.80;;;;;;4846256;29;20456;-66
2022/04/25 03:51:12;;;;;;;2.57;1.60;;;17.10;62.00;;;;;;4852630;29;20466;-66
2022/04/25 03:53:43;;;;;;;3.43;1.70;;;17.10;59.50;;;;;;4848938;29;20445;-66
2022/04/25 03:59:03;;;;;;;2.57;1.90;;;17.10;59.40;;;;;;4841427;29;20461;-66
2022/04/25 04:01:35;;;;;;;1.73;1.60;;;17.10;59.50;;;;;;4839818;29;20479;-67
2022/04/25 04:04:06;;;;;;;1.93;1.73;;;17.10;58.40;;;;;;4849824;29;20473;-66
2022/04/25 04:06:38;;;;;;;2.80;2.17;;;17.00;58.60;;;;;;4852960;29;20456;-67
2022/04/25 04:11:54;;;;;;;2.80;1.60;;;16.80;64.70;;;;;;4851601;29;20494;-66
2022/04/25 04:14:25;;;;;;;3.97;1.60;;;16.70;61.90;;;;;;4845748;29;20575;-66
2022/04/25 04:16:56;;;;;;;2.00;1.90;;;16.60;60.90;;;;;;4849126;29;20477;-66
2022/04/25 04:19:28;;;;;;;1.83;1.73;;;16.50;65.00;;;;;;4845004;29;20524;-66
2022/04/25 04:22:01;;;;;;;2.93;2.30;;;16.50;61.70;;;;;;4844857;29;20492;-66
2022/04/25 04:24:32;;;;;;;2.93;2.27;;;16.40;63.40;;;;;;4835133;29;20481;-66
2022/04/25 04:27:06;;;;;;;2.90;2.10;;;16.40;60.80;;;;;;4852093;29;20476;-65
2022/04/25 04:29:39;;;;;;;3.90;1.80;;;16.40;63.20;;;;;;4839461;29;20482;-65
2022/04/25 04:32:12;;;;;;;2.87;1.73;;;16.40;70.90;;;;;;4850464;29;20786;-66
2022/04/25 04:34:43;;;;;;;2.57;2.10;;;16.30;65.20;;;;;;4847674;29;20469;-66
2022/04/25 04:37:14;;;;;;;2.83;2.20;;;16.30;69.00;;;;;;4841361;29;20478;-66
2022/04/25 04:39:45;;;;;;;3.23;1.83;;;16.30;76.80;;;;;;4835945;29;20481;-67
2022/04/25 04:42:17;;;;;;;3.20;1.60;;;16.30;73.00;;;;;;4851328;29;20550;-66
2022/04/25 04:44:48;;;;;;;2.13;1.70;;;16.30;68.80;;;;;;4847711;29;20482;-65
2022/04/25 04:47:19;;;;;;;1.97;1.77;;;16.20;69.30;;;;;;4846080;29;20505;-65
2022/04/25 04:49:49;;;;;;;2.40;2.20;;;16.20;74.90;;;;;;4838638;29;20475;-66
2022/04/25 04:52:20;;;;;;;2.57;2.20;;;16.20;71.80;;;;;;4838689;29;20458;-66
2022/04/25 04:54:51;;;;;;;3.40;2.17;;;16.20;74.40;;;;;;4833244;29;20534;-65
2022/04/25 04:57:23;;;;;;;2.63;2.43;;;16.20;78.40;;;;;;4847141;29;20502;-65
2022/04/25 04:59:54;;;;;;;2.10;1.90;;;16.20;77.20;;;;;;4842364;29;20476;-65
2022/04/25 05:02:25;;;;;;;3.10;2.63;;;16.20;74.90;;;;;;4842780;29;20467;-65
2022/04/25 05:04:56;;;;;;;2.80;2.60;;;16.20;72.50;;;;;;4843822;29;20517;-66
2022/04/25 05:07:27;;;;;;;3.37;3.07;;;16.10;73.80;;;;;;4835784;29;20502;-65
2022/04/25 05:09:58;;;;;;;3.47;2.60;;;16.10;73.80;;;;;;4846165;29;20462;-65
2022/04/25 05:12:32;;;;;;;3.00;2.50;;;16.10;73.30;;;;;;4851272;29;20500;-66
2022/04/25 05:15:15;;;;;;;3.53;2.83;;;16.00;71.40;;;;;;5126422;27;20713;-67
2022/04/25 05:17:48;;;;;;;2.73;2.23;;;16.00;73.40;;;;;;5090005;28;20426;-67
2022/04/25 05:20:19;;;;;;;2.90;2.70;;;16.10;73.30;;;;;;5100062;28;20465;-66
2022/04/25 05:22:51;;;;;;;3.80;3.10;;;16.10;74.40;;;;;;5092226;28;20539;-66
2022/04/25 05:25:22;;;;;;;3.13;2.27;;;16.10;75.50;;;;;;5087760;28;20454;-66
2022/04/25 05:27:55;;;;;;;2.67;2.40;;;16.10;76.10;;;;;;5098039;28;20459;-66
2022/04/25 05:30:28;;;;;;;4.80;3.23;;;16.10;74.50;;;;;;5099401;28;20572;-64
2022/04/25 05:33:02;;;;;;;5.67;3.07;;;16.00;76.40;;;;;;5099496;28;20451;-66
2022/04/25 05:35:35;;;;;;;3.53;2.47;;;15.90;75.90;;;;;;5099491;28;20458;-65
2022/04/25 05:38:07;;;;;;;4.63;4.03;;;15.90;76.10;;;;;;5099926;28;20431;-66
2022/04/25 05:40:38;;;;;;;3.70;2.77;;;15.80;77.40;;;;;;5099897;28;20439;-66
2022/04/25 05:43:09;;;;;;;3.87;3.47;;;15.80;77.50;;;;;;5098880;28;20463;-66
2022/04/25 05:45:42;;;;;;;4.43;3.17;;;15.70;79.00;;;;;;5099190;28;20430;-66
2022/04/25 05:53:45;;;;;;;4.43;3.00;;;15.40;83.60;;;;;;5096263;28;20489;-66
2022/04/25 05:56:16;;;;;;;4.53;3.40;;;15.40;84.00;;;;;;5097902;28;20491;-66
2022/04/25 05:58:47;;;;;;;8.53;3.30;;;15.20;84.60;;;;;;5097221;28;20464;-66
2022/04/25 06:01:19;;;;;;;5.13;3.70;;;15.20;86.00;;;;;;5084031;28;20523;-65
2022/04/25 06:03:50;;;;;;;3.23;2.73;;;15.20;86.90;;;;;;5095194;28;20482;-65
2022/04/25 06:06:23;;;;;;;5.40;2.97;;;15.20;85.00;;;;;;5097663;28;20468;-65
2022/04/25 06:08:54;;;;;;;3.90;3.20;;;15.20;84.40;;;;;;5095658;28;20993;-65
2022/04/25 06:11:25;;;;;;;5.33;3.17;;;15.30;83.70;;;;;;5098141;28;20470;-65
2022/04/25 06:13:57;;;;;;;3.87;3.27;;;15.20;85.00;;;;;;5097793;28;20494;-65
2022/04/25 06:16:30;;;;;;;3.73;3.37;;;15.30;83.80;;;;;;5089333;28;20467;-65
2022/04/25 06:19:02;;;;;;;4.53;3.20;;;15.20;84.20;;;;;;5096294;28;20466;-65
2022/04/25 06:21:33;;;;;;;3.23;2.93;;;15.20;84.30;;;;;;5096502;28;20545;-65
2022/04/25 06:24:04;;;;;;;4.97;3.53;;;15.20;85.00;;;;;;5096130;28;20471;-65
2022/04/25 06:26:36;;;;;;;4.60;3.80;;;15.10;87.50;;;;;;5074168;28;20469;-65
2022/04/25 06:29:07;;;;;;;4.93;3.97;;;15.10;86.60;;;;;;5083748;28;20898;-65
2022/04/25 06:31:40;;;;;;;4.67;4.17;;;15.10;88.20;;;;;;5083741;28;20465;-65
2022/04/25 06:34:11;;;;;;;6.10;3.60;;;15.00;89.80;;;;;;5082912;28;20514;-65
2022/04/25 06:36:41;;;;;;;3.87;3.47;;;15.00;90.30;;;;;;5082903;28;20442;-65
2022/04/25 06:39:12;;;;;;;7.67;4.20;;;15.00;91.90;;;;;;5082967;28;20483;-65
2022/04/25 06:41:43;;;;;;;4.10;3.37;;;14.80;92.80;;;;;;5084570;28;20530;-65
2022/04/25 06:44:14;;;;;;;3.70;3.40;;;14.70;93.80;;;;;;5083547;28;20463;-65
2022/04/25 06:46:46;;;;;;;4.47;3.43;;;14.70;95.10;;;;;;5077559;28;20452;-65
2022/04/25 06:49:24;;;;;;;6.27;4.53;;;14.60;94.60;;;;;;5083526;28;20463;-65
2022/04/25 06:51:57;;;;;;;4.33;3.33;;;14.60;94.60;;;;;;5084039;28;20438;-65
2022/04/25 06:54:29;;;;;;;3.80;3.50;;;14.60;94.60;;;;;;5079503;28;20480;-65
2022/04/25 06:57:00;;;;;;;7.67;3.83;;;14.50;95.10;;;;;;5081950;28;20537;-64
2022/04/25 06:59:31;;;;;;;5.33;3.33;;;14.50;95.20;;;;;;5082966;28;20459;-65
2022/04/25 07:02:05;;;;;;;5.40;3.80;;;14.50;94.90;;;;;;5081695;28;20470;-65
2022/04/25 07:04:36;;;;;;;4.77;3.73;;;14.40;95.00;;;;;;5083658;28;20460;-65
2022/04/25 07:07:07;;;;;;;3.90;3.57;;;14.40;95.20;;;;;;5083763;28;20463;-65
2022/04/25 07:09:38;;;;;;;4.97;3.47;;;14.40;95.50;;;;;;5082528;28;20459;-64
2022/04/25 07:12:09;;;;;;;4.07;3.40;;;14.40;97.10;;;;;;5082584;28;20455;-65
2022/04/25 07:14:40;;;;;;;4.97;3.83;;;14.30;97.10;;;;;;5081867;28;20510;-64
2022/04/25 07:17:13;;;;;;;6.03;3.80;;;14.30;98.40;;;;;;5082921;28;20463;-65
2022/04/25 07:19:43;;;;;;;3.80;3.40;;;14.30;97.70;;;;;;5082054;28;20471;-65
2022/04/25 07:30:36;;;;;;;4.37;3.20;;;14.10;99.90;;;;;;5073714;28;20464;-65
2022/04/25 07:33:10;;;;;;;5.47;3.80;;;14.10;99.90;;;;;;5073284;28;20451;-64
2022/04/25 07:35:41;;;;;;;4.83;3.20;;;14.00;99.90;;;;;;5082754;28;20494;-65
2022/04/25 07:38:12;;;;;;;4.20;3.10;;;14.00;99.90;;;;;;5080330;28;20477;-65
2022/04/25 07:40:43;;;;;;;5.63;3.67;;;13.90;99.90;;;;;;5078595;28;20537;-65
2022/04/25 07:43:14;;;;;;;4.20;2.90;;;13.90;99.90;;;;;;5082665;28;20482;-65
2022/04/25 07:45:45;;;;;;;2.90;2.70;;;13.80;99.90;;;;;;5081276;28;20455;-65
2022/04/25 07:48:17;;;;;;;4.50;3.47;;;13.80;99.90;;;;;;5073496;28;20463;-65
2022/04/25 07:50:49;;;;;;;5.53;3.30;;;13.80;99.90;;;;;;5080743;28;20493;-66
2022/04/25 07:53:20;;;;;;;8.53;3.80;;;13.80;99.90;;;;;;5080328;28;20487;-65
2022/04/25 07:55:51;;;;;;;4.23;3.80;;;13.80;99.90;;;;;;5070959;28;20503;-65
2022/04/25 07:58:22;;;;;;;4.67;3.80;;;13.80;99.90;;;;;;5073903;28;20476;-66
2022/04/25 08:00:52;;;;;;;6.23;4.63;;;13.90;99.90;;;;;;5081479;28;20456;-65
2022/04/25 08:03:30;;;;;;;5.13;4.63;;;13.90;99.90;;;;;;5082072;28;20463;-65
2022/04/25 08:06:01;;;;;;;6.27;4.30;;;13.80;99.90;;;;;;5081112;28;20490;-66
2022/04/25 08:08:32;;;;;;;6.80;4.57;;;13.90;99.90;;;;;;5081224;28;20467;-65
2022/04/25 08:11:03;;;;;;;7.20;4.30;;;13.90;99.90;;;;;;5081340;28;20464;-66
2022/04/25 08:19:13;;;;;;;5.33;4.07;;;14.00;99.90;;;;;;5079824;28;20463;-66
2022/04/25 08:21:45;;;;;;;5.30;4.80;;;14.00;99.90;;;;;;5081508;28;20451;-65
2022/04/25 08:24:16;;;;;;;6.87;3.67;;;14.00;99.90;;;;;;5080884;28;20470;-65
2022/04/25 08:26:47;;;;;;;5.70;3.87;;;13.90;99.90;;;;;;5081389;28;20467;-65
2022/04/25 08:29:18;;;;;;;4.60;3.97;;;13.90;99.90;;;;;;5078979;28;20459;-65
2022/04/25 08:31:49;;;;;;;5.00;3.77;;;13.90;99.90;;;;;;5081020;28;20456;-66
2022/04/25 08:34:23;;;;;;;4.20;3.90;;;13.80;99.90;;;;;;5075134;28;20468;-66
2022/04/25 08:36:53;;;;;;;6.70;3.10;;;13.70;99.90;;;;;;5079851;28;20463;-65
2022/04/25 08:39:24;;;;;;;5.93;3.17;;;13.80;99.90;;;;;;5080040;28;20478;-65
2022/04/25 08:42:00;;;;;;;4.57;3.30;;;13.90;99.90;;;;;;5076766;28;20467;-66
2022/04/25 08:44:32;;;;;;;4.33;3.73;;;13.90;99.90;;;;;;5075323;28;20853;-65
2022/04/25 08:47:04;;;;;;;4.40;3.60;;;13.90;99.90;;;;;;5081415;28;20463;-65
2022/04/25 08:49:37;;;;;;;4.00;3.47;;;13.90;99.90;;;;;;5079500;28;20463;-65
2022/04/25 08:52:09;;;;;;;3.73;3.17;;;13.80;99.90;;;;;;5081502;28;20493;-65
2022/04/25 08:54:40;;;;;;;4.60;3.60;;;13.90;99.90;;;;;;5080750;28;20549;-65
2022/04/25 08:57:18;;;;;;;6.17;3.57;;;13.80;99.90;;;;;;5081277;28;20459;-65
2022/04/25 08:59:49;;;;;;;5.20;3.77;;;13.90;99.90;;;;;;5080781;28;20466;-65
2022/04/25 09:02:20;;;;;;;4.30;3.60;;;13.90;99.90;;;;;;5080296;28;20782;-65
2022/04/25 09:04:53;;;;;;;4.30;3.23;;;13.90;99.90;;;;;;5080940;28;20452;-65
2022/04/25 09:07:25;;;;;;;5.27;3.50;;;13.80;99.90;;;;;;5081972;28;20466;-65
2022/04/25 09:09:56;;;;;;;4.03;3.63;;;13.80;99.90;;;;;;5079529;28;20467;-66
2022/04/25 09:12:27;;;;;;;4.00;3.20;;;13.80;99.90;;;;;;5081123;28;20473;-65
2022/04/25 09:14:58;;;;;;;6.00;3.30;;;13.90;99.90;;;;;;5080115;28;20491;-65
2022/04/25 09:17:49;;;;;;;3.70;3.40;;;13.80;99.90;;;;;;5081644;28;20470;-66
2022/04/25 09:20:22;;;;;;;4.60;2.73;;;13.80;99.90;;;;;;5080417;28;20574;-66
2022/04/25 09:22:53;;;;;;;5.33;3.50;;;13.90;99.90;;;;;;5080274;28;20777;-66
2022/04/25 09:25:24;;;;;;;5.27;3.10;;;13.90;99.90;;;;;;5079618;28;20468;-64
2022/04/25 09:28:15;;;;;;;3.80;3.40;;;13.90;99.90;;;;;;5080382;28;20529;-65
2022/04/25 09:30:59;;;;;;;4.93;3.90;;;14.00;99.90;;;;;;5076411;28;20582;-63
2022/04/25 09:33:29;;;;;;;3.93;3.27;;;14.00;99.90;;;;;;5071580;28;20506;-64
2022/04/25 09:36:02;;;;;;;4.80;3.47;;;13.90;99.90;;;;;;5080115;28;20490;-65
2022/04/25 09:38:35;;;;;;;4.67;3.40;;;14.00;99.90;;;;;;5077924;28;20455;-66
2022/04/25 09:41:08;;;;;;;4.23;3.83;;;13.90;99.90;;;;;;5080609;28;20444;-65
2022/04/25 09:43:40;;;;;;;4.40;3.30;;;13.90;99.90;;;;;;5080495;28;20859;-65
2022/04/25 09:46:13;;;;;;;3.60;3.30;;;13.90;99.90;;;;;;5081181;28;20471;-65
2022/04/25 09:49:03;;;;;;;4.30;3.47;;;13.90;99.90;;;;;;5080208;28;20463;-65
2022/04/25 09:51:37;;;;;;;5.90;3.43;;;13.80;99.90;;;;;;5080997;28;20464;-66
2022/04/25 09:54:09;;;;;;;5.83;4.20;;;13.90;99.90;;;;;;5078725;28;20484;-65
2022/04/25 09:56:40;;;;;;;4.67;3.47;;;13.80;99.90;;;;;;5082213;28;20483;-65
2022/04/25 09:59:11;;;;;;;5.57;3.57;;;13.80;99.90;;;;;;5079178;28;20754;-65
2022/04/25 10:01:43;;;;;;;6.03;4.17;;;13.70;99.90;;;;;;5080440;28;20474;-65
2022/04/25 10:04:32;;;;;;;5.40;4.00;;;13.70;99.90;;;;;;5084785;28;20495;-65
2022/04/25 10:07:07;;;;;;;4.50;3.30;;;13.80;99.90;;;;;;5084828;28;20475;-66
2022/04/25 10:09:37;;;;;;;7.50;4.10;;;13.80;99.90;;;;;;5082633;28;20489;-66
2022/04/25 10:12:09;;;;;;;9.70;4.63;;;13.90;99.90;;;;;;5081755;28;20463;-65
2022/04/25 10:14:40;;;;;;;4.50;3.83;;;13.80;99.90;;;;;;5084153;28;20490;-66
2022/04/25 10:17:12;;;;;;;5.33;3.57;;;13.80;99.90;;;;;;5085129;28;20494;-65
2022/04/25 10:19:45;;;;;;;5.50;4.20;;;13.70;99.90;;;;;;5082616;28;20477;-65
2022/04/25 10:22:19;;;;;;;5.00;4.07;;;13.70;99.90;;;;;;5073533;28;20477;-65
2022/04/25 10:24:50;;;;;;;4.30;3.90;;;13.60;99.90;;;;;;5082357;28;20466;-65
2022/04/25 10:27:28;;;;;;;5.23;4.33;;;13.50;99.90;;;;;;5083457;28;20464;-66
2022/04/25 10:30:05;;;;;;;8.53;4.53;;;13.40;99.90;;;;;;5079381;28;20594;-65
2022/04/25 10:32:36;;;;;;;7.33;4.53;;;13.20;99.90;;;;;;5083513;28;20504;-65
2022/04/25 10:35:12;;;;;;;6.70;4.07;;;13.10;99.90;;;;;;5083648;28;20475;-65
2022/04/25 10:37:45;;;;;;;8.03;5.30;;;13.00;99.90;;;;;;5082634;28;20987;-65
2022/04/25 10:44:10;;;;;;;6.47;4.60;;;12.90;99.90;;;;;;5082578;28;20459;-65
2022/04/25 10:46:16;;;;;;;6.90;4.97;;;12.70;99.90;;;;;;5083941;28;20497;-65
2022/04/25 10:49:07;;;;;;;6.43;4.63;;;12.60;99.90;;;;;;5081717;28;20479;-65
2022/04/25 10:51:39;;;;;;;5.90;5.27;;;12.60;99.90;;;;;;5082368;28;20469;-66
2022/04/25 10:54:14;;;;;;;6.07;4.73;;;12.60;99.90;;;;;;5083321;28;20470;-65
2022/04/25 10:57:14;;;;;;;7.07;4.53;;;12.50;99.90;;;;;;5073131;28;20501;-65
2022/04/25 10:59:45;;;;;;;8.00;5.30;;;12.40;99.90;;;;;;5080164;28;20464;-65
2022/04/25 11:02:26;;;;;;;5.33;4.83;;;12.40;99.90;;;;;;5082203;28;20471;-65
2022/04/25 11:05:36;;;;;;;7.77;4.97;;;12.30;99.90;;;;;;5083028;28;20519;-65
2022/04/25 11:08:28;;;;;;;6.20;4.80;;;12.30;99.90;;;;;;5078721;28;20454;-65
2022/04/25 11:11:18;;;;;;;7.07;4.50;;;12.30;99.90;;;;;;5075916;28;20474;-65
2022/04/25 11:14:24;;;;;;;7.23;5.00;;;12.30;99.90;;;;;;5080723;28;20498;-65
2022/04/25 11:17:10;;;;;;;8.10;6.03;;;12.30;99.90;;;;;;5081906;28;20487;-65
2022/04/25 11:19:49;;;;;;;6.30;4.10;;;12.20;99.90;;;;;;5079320;28;20470;-65
2022/04/25 11:22:49;;;;;;;5.93;5.07;;;12.30;99.90;;;;;;5079561;28;20461;-66
2022/04/25 11:25:41;;;;;;;6.13;4.67;;;12.30;99.90;;;;;;5081758;28;20808;-65
2022/04/25 11:28:17;;;;;;;6.20;5.27;;;12.40;99.90;;;;;;5082455;28;20481;-66
2022/04/25 11:31:23;;;;;;;9.47;4.77;;;12.30;99.90;;;;;;5082841;28;20463;-65
2022/04/25 11:33:55;;;;;;;7.03;5.23;;;12.30;99.90;;;;;;5081775;28;20455;-65
2022/04/25 11:36:27;;;;;;;8.33;4.87;;;12.30;99.90;;;;;;5074962;28;20835;-65
2022/04/25 11:41:46;;;;;;;5.57;4.90;;;12.40;99.90;;;;;;5081562;28;20478;-66
2022/04/25 11:44:19;;;;;;;6.77;6.17;;;12.30;99.90;;;;;;5080762;28;20471;-65
2022/04/25 11:46:51;;;;;;;5.27;4.77;;;12.30;99.90;;;;;;5082585;28;20463;-66
2022/04/25 11:49:29;;;;;;;13.47;5.90;;;12.30;99.90;;;;;;5082640;28;20459;-66
2022/04/25 11:52:01;;;;;;;7.73;5.10;;;12.30;99.90;;;;;;5081937;28;20455;-66
2022/04/25 11:54:33;;;;;;;7.90;5.43;;;12.20;99.90;;;;;;5068093;28;20477;-65
2022/04/25 11:57:05;;;;;;;6.57;4.77;;;12.30;99.90;;;;;;5079716;28;20981;-65
2022/04/25 11:59:37;;;;;;;5.00;4.50;;;12.30;99.90;;;;;;5077655;28;20462;-65
2022/04/25 12:02:09;;;;;;;7.40;4.80;;;12.30;99.90;;;;;;5080446;28;20447;-65
2022/04/25 12:04:43;;;;;;;8.13;5.30;;;12.30;99.90;;;;;;5082113;28;20573;-66
2022/04/25 12:07:15;;;;;;;6.00;4.80;;;12.30;99.90;;;;;;5082570;28;20488;-66
2022/04/25 12:15:40;;;;;;;8.10;5.10;;;12.40;99.90;;;;;;5082710;28;20455;-66
2022/04/25 12:18:16;;;;;;;7.70;5.20;;;12.40;99.90;;;;;;5082553;28;20529;-65
2022/04/25 12:20:49;;;;;;;4.17;3.87;;;12.40;99.90;;;;;;5082440;28;20459;-65
2022/04/25 12:23:25;;;;;;;8.87;4.63;;;12.40;99.90;;;;;;5081057;28;20462;-65
2022/04/25 12:25:56;;;;;;;6.17;4.97;;;12.40;99.90;;;;;;5083419;28;20443;-65
2022/04/25 12:28:28;;;;;;;6.20;5.37;;;12.40;99.90;;;;;;5082522;28;20479;-65
2022/04/25 12:31:06;;;;;;;7.40;4.70;;;12.40;99.90;;;;;;5081857;28;20463;-65
2022/04/25 12:33:39;;;;;;;6.00;5.40;;;12.40;99.90;;;;;;5082396;28;20519;-65
2022/04/25 12:36:14;;;;;;;5.63;4.60;;;12.40;99.90;;;;;;5082076;28;20533;-65
2022/04/25 12:38:47;;;;;;;5.77;5.27;;;12.40;99.90;;;;;;5080424;28;20488;-65
2022/04/25 12:41:23;;;;;;;4.73;4.30;;;12.50;99.90;;;;;;5081133;28;20455;-65
2022/04/25 12:43:55;;;;;;;6.43;4.67;;;12.40;99.90;;;;;;5080817;28;20851;-65
2022/04/25 12:46:41;;;;;;;7.23;4.60;;;12.40;99.90;;;;;;5066892;28;20547;-65
2022/04/25 12:49:13;;;;;;;5.23;4.50;;;12.50;99.90;;;;;;5080503;28;20542;-65
2022/04/25 12:51:48;;;;;;;9.20;5.10;;;12.40;99.90;;;;;;5080989;28;20463;-65
2022/04/25 12:54:24;;;;;;;6.57;4.50;;;12.50;99.90;;;;;;5078954;28;20462;-65
2022/04/25 12:57:08;;;;;;;5.13;4.63;;;12.50;99.90;;;;;;5081100;28;20962;-65
2022/04/25 12:59:40;;;;;;;4.90;4.37;;;12.50;99.90;;;;;;5081614;28;20453;-65
2022/04/25 13:02:14;;;;;;;5.80;5.30;;;12.60;99.90;;;;;;5079474;28;20455;-65
2022/04/25 13:04:54;;;;;;;6.03;5.17;;;12.60;99.90;;;;;;5066738;28;20460;-66
2022/04/25 13:07:28;;;;;;;5.90;5.27;;;12.60;99.90;;;;;;5080166;28;20534;-66
2022/04/25 13:10:01;;;;;;;5.13;4.53;;;12.60;99.90;;;;;;5080541;28;20477;-65
2022/04/25 13:12:36;;;;;;;5.17;4.70;;;12.50;99.90;;;;;;5080174;28;20471;-65
2022/04/25 13:15:08;;;;;;;5.63;4.70;;;12.40;99.90;;;;;;5081167;28;20978;-66
2022/04/25 13:17:41;;;;;;;5.00;4.50;;;12.40;99.90;;;;;;5075032;28;22131;-66
2022/04/25 13:20:14;;;;;;;5.50;5.00;;;12.40;99.90;;;;;;5080027;28;20473;-65
2022/04/25 13:22:45;;;;;;;8.03;4.40;;;12.50;99.90;;;;;;5075958;28;20570;-65
2022/04/25 13:25:18;;;;;;;5.83;5.23;;;12.30;99.90;;;;;;5080743;28;20554;-65
2022/04/25 13:27:49;;;;;;;7.93;5.47;;;12.20;99.90;;;;;;5080769;28;20982;-66
2022/04/25 13:30:21;;;;;;;5.70;4.60;;;12.30;99.90;;;;;;5081349;28;20459;-65
2022/04/25 13:32:55;;;;;;;8.50;4.90;;;12.20;99.90;;;;;;5080161;28;20459;-66
2022/04/25 13:35:26;;;;;;;6.10;4.97;;;12.20;99.90;;;;;;5082550;28;20527;-65
2022/04/25 13:37:57;;;;;;;5.03;4.53;;;12.20;99.90;;;;;;5084057;28;20495;-66
2022/04/25 13:40:28;;;;;;;5.83;4.40;;;12.20;99.90;;;;;;5083186;28;20475;-66
2022/04/25 13:42:59;;;;;;;8.40;4.70;;;12.10;99.90;;;;;;5084409;28;20463;-66
2022/04/25 13:45:30;;;;;;;5.33;4.50;;;12.10;99.90;;;;;;5073614;28;20455;-66
2022/04/25 13:48:02;;;;;;;4.97;4.40;;;12.10;99.90;;;;;;5084482;28;20474;-66
2022/04/25 13:50:35;;;;;;;5.23;4.30;;;12.00;99.90;;;;;;5084754;28;20466;-66
2022/04/25 13:53:07;;;;;;;5.20;4.67;;;12.00;99.90;;;;;;5082179;28;20501;-66
2022/04/25 13:55:38;;;;;;;5.40;4.30;;;12.00;99.90;;;;;;5084905;28;20478;-65